OJAM/ADJ METAR and TAF weather

Enter ICAO airport designator
Station Type Date Time Source
OJAM METAR 2023/02/06 19:00 UTC NOAA

OJAM 061900Z 25027KT 4000 FZRA SCT020 BKN025 OVC030 05/03 Q1010 NOSIG


Station Type Date Time Source
OJAM Decoded METAR 2023/02/06 19:00 UTC NOAA

Amman Airport, Jordan (OJAM) 31-59N 035-59E 768M
Feb 06, 2023 - 02:00 PM EST / 2023.02.06 1900 UTC
Wind: from the WSW (250 degrees) at 31 MPH (27 KT):0
Visibility: 2 mile(s):0
Sky conditions: overcast
Weather: freezing rain
Temperature: 41 F (5 C)
Dew Point: 37 F (3 C)
Relative Humidity: 86%
Pressure (altimeter): 29.83 in. Hg (1010 hPa)
ob: OJAM 061900Z 25027KT 4000 FZRA SCT020 BKN025 OVC030 05/03 Q1010 NOSIG
cycle: 19

Station Type Date Time Source
OJAM TAF 2023/02/06 18:24 UTC NOAA

TAF COR OJAM 061804Z 0618/0724 24015KT 4000 BR SCT030 BKN040
TEMPO 0618/0718 24015G25KT 1000 TSRAGR BR FEW020CB BKN020 BKN025

Example: see airport list